Springbok, South Africa
Current Conditions -  °F | °C
As of 8:00 AM on Monday 26 Jan 2015 (Local Time) from FAUP Reporting Station
Broken Clouds Broken Clouds  
Wind Chill: 75°   Ceiling: 10000
Heat Index: 75°   Visibility: 6mi
Dew Point: 59°   Wind: 12mph
Humidity: 57%   Direction: 360°N
Pressure: 30"   Gusts: NA
Location:  29.67°S, 17.88°E
Report Text: FAUP 260600Z 36010KT 9999 FEW035 BKN100 24/15 Q1016 NOSIG
Loading
Personal Weather Stations






























Interactive Weather Map New forecast layout! Learn more

10-Day Weather Forecast

Advertisements
Track Severe Weather on mobile